createdAt,value
2023-02-03T00:02:16.731Z,0.90
2023-02-03T00:05:05.222Z,1.10
2023-02-03T00:07:54.944Z,0.82
2023-02-03T00:10:43.439Z,1.23
2023-02-03T00:13:32.015Z,1.20
2023-02-03T00:16:20.258Z,1.00
2023-02-03T00:19:08.452Z,1.05
2023-02-03T00:21:56.656Z,0.90
2023-02-03T00:24:46.188Z,1.20
2023-02-03T00:27:34.555Z,0.90
2023-02-03T00:30:22.726Z,0.95
2023-02-03T00:33:11.019Z,1.48
2023-02-03T00:35:59.206Z,1.85
2023-02-03T00:38:49.015Z,1.70
2023-02-03T00:41:38.568Z,1.73
2023-02-03T00:44:26.853Z,1.70
2023-02-03T00:47:15.043Z,1.83
2023-02-03T00:50:03.261Z,2.00
2023-02-03T00:52:51.450Z,1.90
2023-02-03T00:55:39.644Z,2.47
2023-02-03T00:58:29.203Z,2.05
2023-02-03T01:01:17.444Z,1.98
2023-02-03T01:04:06.278Z,2.22
2023-02-03T01:06:57.492Z,1.92
2023-02-03T01:12:33.954Z,1.83
2023-02-03T01:15:23.570Z,1.75
2023-02-03T01:18:11.806Z,2.38
2023-02-03T01:21:00.029Z,2.00
2023-02-03T01:23:48.627Z,1.90
2023-02-03T01:26:36.977Z,2.17
2023-02-03T01:29:26.199Z,2.00
2023-02-03T01:32:15.751Z,1.95
2023-02-03T01:35:04.245Z,1.75
2023-02-03T01:37:52.649Z,1.58
2023-02-03T01:40:44.318Z,2.17
2023-02-03T01:43:33.630Z,2.20
2023-02-03T01:46:31.875Z,1.42
2023-02-03T01:49:25.536Z,1.55
2023-02-03T01:52:13.923Z,1.30
2023-02-03T01:55:06.464Z,1.20
2023-02-03T01:57:59.862Z,1.42
2023-02-03T02:00:49.536Z,1.83
2023-02-03T02:03:42.157Z,1.90
2023-02-03T02:06:32.334Z,2.20
2023-02-03T02:09:20.684Z,2.47
2023-02-03T02:12:11.238Z,3.30
2023-02-03T02:14:59.972Z,4.15
2023-02-03T02:18:05.793Z,4.35
2023-02-03T02:21:11.885Z,5.82
2023-02-03T02:24:33.247Z,6.40
2023-02-03T02:28:03.561Z,7.47
2023-02-03T02:31:26.978Z,8.20
2023-02-03T02:34:25.310Z,8.82
2023-02-03T02:37:25.180Z,10.25
2023-02-03T02:40:24.095Z,11.52
2023-02-03T02:43:21.351Z,11.40
2023-02-03T02:46:14.684Z,12.02
2023-02-03T02:49:07.918Z,13.45
2023-02-03T02:52:01.074Z,13.55
2023-02-03T02:54:53.640Z,14.63
2023-02-03T02:57:43.346Z,13.18
2023-02-03T03:00:32.355Z,13.27
2023-02-03T03:03:23.092Z,13.27
2023-02-03T03:06:16.759Z,13.48
2023-02-03T03:09:08.784Z,14.27
2023-02-03T03:12:03.269Z,13.75
2023-02-03T03:14:56.526Z,13.15
2023-02-03T03:17:47.231Z,13.27
2023-02-03T03:20:40.150Z,12.48
2023-02-03T03:23:33.004Z,13.63
2023-02-03T03:26:29.529Z,13.15
2023-02-03T03:29:22.165Z,12.63
2023-02-03T03:32:11.049Z,13.63
2023-02-03T03:34:59.819Z,12.13
2023-02-03T03:37:55.264Z,13.07
2023-02-03T03:40:48.359Z,12.38
2023-02-03T03:43:44.299Z,14.07
2023-02-03T03:46:39.105Z,13.25
2023-02-03T03:49:29.771Z,13.70
2023-02-03T03:52:23.543Z,12.65
2023-02-03T03:55:15.610Z,13.80
2023-02-03T03:58:08.061Z,14.15
2023-02-03T04:01:00.887Z,13.38
2023-02-03T04:03:53.385Z,13.43
2023-02-03T04:06:41.689Z,12.35
2023-02-03T04:09:29.907Z,12.10
2023-02-03T04:12:24.972Z,13.32
2023-02-03T04:15:13.153Z,13.38
2023-02-03T04:18:03.332Z,12.52
2023-02-03T04:20:51.907Z,11.80
2023-02-03T04:23:40.144Z,11.57
2023-02-03T04:26:28.401Z,11.15
2023-02-03T04:29:16.640Z,10.15
2023-02-03T04:32:05.175Z,9.75
2023-02-03T04:34:54.787Z,10.18
2023-02-03T04:37:43.014Z,9.77
2023-02-03T04:40:32.957Z,9.43
2023-02-03T04:43:22.221Z,9.27
2023-02-03T04:46:11.223Z,9.18
2023-02-03T04:48:59.484Z,8.25
2023-02-03T04:51:51.444Z,8.98
2023-02-03T04:54:39.696Z,8.52
2023-02-03T04:57:27.947Z,8.27
2023-02-03T05:00:16.753Z,8.20
2023-02-03T05:03:05.085Z,8.13
2023-02-03T05:05:53.356Z,7.68
2023-02-03T05:08:43.181Z,7.85
2023-02-03T05:11:31.578Z,7.68
2023-02-03T05:14:19.922Z,7.32
2023-02-03T05:17:08.182Z,7.05
2023-02-03T05:19:56.462Z,6.90
2023-02-03T05:22:44.663Z,7.05
2023-02-03T05:25:34.229Z,6.55
2023-02-03T05:28:22.498Z,6.50
2023-02-03T05:31:10.793Z,6.50
2023-02-03T05:33:59.025Z,6.25
2023-02-03T05:36:47.233Z,7.38
2023-02-03T05:39:35.453Z,6.85
2023-02-03T05:42:24.009Z,6.45
2023-02-03T05:45:12.414Z,6.60
2023-02-03T05:48:02.539Z,6.43
2023-02-03T05:50:50.761Z,5.57
2023-02-03T05:53:39.025Z,6.05
2023-02-03T05:56:27.459Z,6.25
2023-02-03T05:59:17.139Z,6.30
2023-02-03T06:02:05.317Z,6.28
2023-02-03T06:04:53.578Z,6.50
2023-02-03T06:07:41.779Z,6.18
2023-02-03T06:10:30.203Z,5.72
2023-02-03T06:13:18.513Z,6.50
2023-02-03T06:16:08.436Z,6.13
2023-02-03T06:18:59.659Z,6.80
2023-02-03T06:21:48.058Z,6.43
2023-02-03T06:24:36.348Z,6.05
2023-02-03T06:27:24.662Z,6.22
2023-02-03T06:30:13.909Z,6.10
2023-02-03T06:33:03.579Z,5.75
2023-02-03T06:35:51.867Z,5.60
2023-02-03T06:38:40.109Z,5.50
2023-02-03T06:41:30.678Z,6.68
2023-02-03T06:44:19.072Z,5.60
2023-02-03T06:47:07.291Z,6.13
2023-02-03T06:49:56.902Z,5.32
2023-02-03T06:52:45.334Z,6.35
2023-02-03T06:55:33.590Z,5.45
2023-02-03T06:58:21.883Z,5.85
2023-02-03T07:01:10.085Z,5.63
2023-02-03T07:03:58.941Z,5.40
2023-02-03T07:06:48.510Z,4.75
2023-02-03T07:09:36.751Z,6.07
2023-02-03T07:12:25.040Z,4.80
2023-02-03T07:15:14.315Z,4.65
2023-02-03T07:18:02.638Z,4.70
2023-02-03T07:20:51.131Z,4.18
2023-02-03T07:23:40.833Z,4.13
2023-02-03T07:26:29.231Z,3.88
2023-02-03T07:29:17.459Z,4.05
2023-02-03T07:32:06.379Z,3.90
2023-02-03T07:34:54.692Z,3.90
2023-02-03T07:37:43.407Z,4.30
2023-02-03T07:40:32.983Z,3.60
2023-02-03T07:43:21.590Z,3.85
2023-02-03T07:46:10.260Z,3.60
2023-02-03T07:48:58.556Z,3.33
2023-02-03T07:51:46.778Z,3.95
2023-02-03T07:54:35.125Z,4.15
2023-02-03T07:57:24.703Z,3.58
2023-02-03T08:00:14.568Z,3.50
2023-02-03T08:03:02.821Z,3.25
2023-02-03T08:05:51.195Z,3.10
2023-02-03T08:08:40.080Z,3.20
2023-02-03T08:11:28.368Z,3.00
2023-02-03T08:14:18.142Z,3.25
2023-02-03T08:17:06.429Z,3.35
2023-02-03T08:19:54.927Z,3.08
2023-02-03T08:22:43.164Z,2.70
2023-02-03T08:25:31.777Z,3.58
2023-02-03T08:28:20.154Z,3.15
2023-02-03T08:31:13.524Z,4.07
2023-02-03T08:34:01.804Z,3.25
2023-02-03T08:36:50.111Z,3.38
2023-02-03T08:39:39.148Z,2.67
2023-02-03T08:42:27.503Z,2.28
2023-02-03T08:45:15.864Z,2.53
2023-02-03T08:48:05.503Z,2.47
2023-02-03T08:50:53.710Z,2.47
2023-02-03T08:53:42.017Z,2.40
2023-02-03T08:56:30.365Z,2.40
2023-02-03T08:59:19.255Z,2.10
2023-02-03T09:02:10.708Z,1.85
2023-02-03T09:05:00.556Z,2.55
2023-02-03T09:07:48.832Z,1.90
2023-02-03T09:10:37.646Z,2.17
2023-02-03T09:13:25.965Z,1.73
2023-02-03T09:16:17.273Z,1.95
2023-02-03T09:19:05.610Z,2.03
2023-02-03T09:21:57.199Z,2.05
2023-02-03T09:24:45.691Z,2.10
2023-02-03T09:27:33.899Z,1.73
2023-02-03T09:30:22.405Z,2.50
2023-02-03T09:33:10.679Z,2.10
2023-02-03T09:35:59.993Z,2.25
2023-02-03T09:38:49.612Z,2.58
2023-02-03T09:41:51.680Z,2.63
2023-02-03T09:44:46.237Z,2.67
2023-02-03T09:47:38.348Z,2.30
2023-02-03T09:50:30.851Z,2.20
2023-02-03T09:53:29.664Z,2.40
2023-02-03T09:56:28.309Z,2.30
2023-02-03T09:59:16.777Z,2.70
2023-02-03T10:02:19.811Z,2.53
2023-02-03T10:05:19.087Z,2.40
2023-02-03T10:08:18.568Z,2.70
2023-02-03T10:11:19.106Z,2.40
2023-02-03T10:14:23.147Z,2.53
2023-02-03T10:17:27.079Z,2.03
2023-02-03T10:20:21.653Z,2.10
2023-02-03T10:23:14.093Z,1.98
2023-02-03T10:26:06.771Z,2.20
2023-02-03T10:28:56.799Z,2.55
2023-02-03T10:31:47.641Z,2.15
2023-02-03T10:34:36.706Z,2.08
2023-02-03T10:37:30.449Z,2.20
2023-02-03T10:40:19.067Z,2.10
2023-02-03T10:43:24.610Z,2.35
2023-02-03T10:46:12.846Z,2.25
2023-02-03T10:49:02.551Z,2.17
2023-02-03T10:51:52.564Z,3.20
2023-02-03T10:54:40.767Z,1.88
2023-02-03T10:57:31.104Z,1.75
2023-02-03T11:00:25.773Z,2.25
2023-02-03T11:03:24.241Z,2.30
2023-02-03T11:06:16.087Z,2.33
2023-02-03T11:09:25.205Z,2.65
2023-02-03T11:12:16.072Z,2.92
2023-02-03T11:15:08.735Z,2.15
2023-02-03T11:17:57.019Z,2.80
2023-02-03T11:20:45.264Z,1.77
2023-02-03T11:23:34.916Z,2.58
2023-02-03T11:26:27.522Z,2.10
2023-02-03T11:29:19.542Z,2.08
2023-02-03T11:32:18.444Z,2.28
2023-02-03T11:35:17.996Z,1.80
2023-02-03T11:38:06.217Z,1.73
2023-02-03T11:41:01.114Z,1.70
2023-02-03T11:43:50.019Z,2.03
2023-02-03T11:46:38.987Z,2.17
2023-02-03T11:49:53.900Z,2.10
2023-02-03T11:53:13.948Z,1.80
2023-02-03T11:56:21.414Z,2.22
2023-02-03T11:59:47.977Z,2.65
2023-02-03T12:03:16.839Z,3.20
2023-02-03T12:06:25.578Z,2.67
2023-02-03T12:09:24.812Z,2.92
2023-02-03T12:12:45.912Z,3.85
2023-02-03T12:16:09.878Z,2.30
2023-02-03T12:19:08.145Z,2.83
2023-02-03T12:22:06.329Z,2.72
2023-02-03T12:25:00.693Z,2.67
2023-02-03T12:27:59.928Z,2.60
2023-02-03T12:30:53.975Z,2.42
2023-02-03T12:33:45.712Z,3.08
2023-02-03T12:36:40.781Z,2.72
2023-02-03T12:39:32.748Z,2.60
2023-02-03T12:42:25.572Z,3.13
2023-02-03T12:45:20.374Z,3.05
2023-02-03T12:48:16.972Z,2.50
2023-02-03T12:51:09.457Z,4.20
2023-02-03T12:54:04.159Z,2.38
2023-02-03T12:56:56.412Z,3.30
2023-02-03T12:59:58.943Z,2.92
2023-02-03T13:03:01.025Z,2.50
2023-02-03T13:05:53.370Z,3.05
2023-02-03T13:08:47.321Z,3.50
2023-02-03T13:11:40.742Z,3.55
2023-02-03T13:14:34.036Z,3.65
2023-02-03T13:17:27.789Z,2.80
2023-02-03T13:20:21.694Z,2.90
2023-02-03T13:23:14.133Z,3.15
2023-02-03T13:26:21.375Z,3.10
2023-02-03T13:29:28.129Z,2.85
2023-02-03T13:32:32.346Z,3.17
2023-02-03T13:35:36.532Z,3.38
2023-02-03T13:38:38.573Z,2.90
2023-02-03T13:41:33.340Z,3.58
2023-02-03T13:44:26.868Z,2.78
2023-02-03T13:47:18.734Z,2.75
2023-02-03T13:50:17.989Z,3.08
2023-02-03T13:53:16.090Z,3.50
2023-02-03T13:56:06.590Z,2.65
2023-02-03T13:59:04.956Z,3.38
2023-02-03T14:02:13.191Z,2.95
2023-02-03T14:05:03.051Z,3.22
2023-02-03T14:07:51.325Z,3.13
2023-02-03T14:10:40.972Z,2.20
2023-02-03T14:13:29.224Z,3.55
2023-02-03T14:16:25.508Z,3.28
2023-02-03T14:19:34.650Z,2.95
2023-02-03T14:22:23.474Z,3.13
2023-02-03T14:25:11.741Z,3.58
2023-02-03T14:28:03.009Z,3.47
2023-02-03T14:31:14.993Z,2.78
2023-02-03T14:34:15.301Z,3.85
2023-02-03T14:37:22.619Z,2.80
2023-02-03T14:40:28.833Z,3.03
2023-02-03T14:43:36.139Z,3.15
2023-02-03T14:46:48.212Z,2.97
2023-02-03T14:49:50.147Z,2.38
2023-02-03T14:53:05.145Z,2.83
2023-02-03T14:56:05.186Z,2.38
2023-02-03T14:58:58.447Z,2.80
2023-02-03T15:02:10.584Z,2.55
2023-02-03T15:05:32.273Z,2.50
2023-02-03T15:08:47.094Z,3.28
2023-02-03T15:11:35.444Z,2.60
2023-02-03T15:14:27.399Z,3.33
2023-02-03T15:17:24.047Z,3.17
2023-02-03T15:20:35.444Z,2.78
2023-02-03T15:23:25.268Z,2.60
2023-02-03T15:26:15.515Z,2.28
2023-02-03T15:29:07.118Z,2.97
2023-02-03T15:32:05.412Z,3.13
2023-02-03T15:34:54.477Z,2.80
2023-02-03T15:37:47.536Z,3.40
2023-02-03T15:40:39.516Z,3.58
2023-02-03T15:43:32.889Z,2.80
2023-02-03T15:46:28.580Z,3.03
2023-02-03T15:49:22.000Z,3.17
2023-02-03T15:52:14.140Z,2.72
2023-02-03T15:55:12.508Z,2.22
2023-02-03T15:58:01.041Z,2.10
2023-02-03T16:00:52.507Z,4.00
2023-02-03T16:03:43.688Z,2.53
2023-02-03T16:06:39.210Z,2.78
2023-02-03T16:09:30.499Z,2.83
2023-02-03T16:12:23.132Z,3.70
2023-02-03T16:15:23.607Z,3.33
2023-02-03T16:18:18.661Z,2.60
2023-02-03T16:21:07.376Z,3.55
2023-02-03T16:23:57.076Z,3.30
2023-02-03T16:26:45.280Z,3.40
2023-02-03T16:29:54.615Z,2.60
2023-02-03T16:33:00.527Z,2.83
2023-02-03T16:36:06.471Z,2.85
2023-02-03T16:39:13.688Z,3.20
2023-02-03T16:42:25.297Z,3.58
2023-02-03T16:45:34.253Z,3.42
2023-02-03T16:48:40.136Z,3.10
2023-02-03T16:51:34.738Z,2.95
2023-02-03T16:54:24.566Z,3.80
2023-02-03T16:57:12.772Z,2.33
2023-02-03T17:00:01.340Z,3.38
2023-02-03T17:02:49.887Z,2.90
2023-02-03T17:05:38.595Z,4.32
2023-02-03T17:08:27.561Z,3.97
2023-02-03T17:11:19.543Z,2.80
2023-02-03T17:14:07.872Z,4.00
2023-02-03T17:16:56.268Z,3.67
2023-02-03T17:19:44.593Z,3.50
2023-02-03T17:22:33.995Z,3.20
2023-02-03T17:25:22.761Z,2.88
2023-02-03T17:28:14.129Z,3.50
2023-02-03T17:31:05.198Z,3.38
2023-02-03T17:36:41.897Z,3.20
2023-02-03T17:55:01.289Z,2.80
2023-02-03T17:57:49.539Z,2.55
2023-02-03T18:00:37.805Z,3.67
2023-02-03T18:03:27.374Z,3.10
2023-02-03T18:06:17.472Z,3.05
2023-02-03T18:09:09.046Z,3.63
2023-02-03T18:11:57.334Z,4.75
2023-02-03T18:14:45.566Z,3.00
2023-02-03T18:17:33.800Z,2.50
2023-02-03T18:20:23.296Z,3.03
2023-02-03T18:23:11.471Z,2.25
2023-02-03T18:25:59.912Z,2.65
2023-02-03T18:28:48.280Z,2.85
2023-02-03T18:31:37.518Z,3.22
2023-02-03T18:34:25.844Z,3.15
2023-02-03T18:37:15.435Z,3.80
2023-02-03T18:40:03.727Z,2.88
2023-02-03T18:42:51.988Z,2.80
2023-02-03T18:45:40.354Z,3.55
2023-02-03T18:48:28.601Z,2.83
2023-02-03T18:51:18.593Z,2.00
2023-02-03T18:54:08.189Z,2.20
2023-02-03T18:56:56.518Z,3.30
2023-02-03T18:59:45.275Z,2.58
2023-02-03T19:02:34.315Z,3.17
2023-02-03T19:05:22.578Z,2.50
2023-02-03T19:08:10.768Z,2.55
2023-02-03T19:11:00.268Z,2.63
2023-02-03T19:13:48.581Z,3.33
2023-02-03T19:16:36.796Z,2.78
2023-02-03T19:19:25.061Z,3.05
2023-02-03T19:22:13.775Z,2.90
2023-02-03T19:25:02.041Z,3.15
2023-02-03T19:27:51.748Z,3.30
2023-02-03T19:30:40.028Z,3.33
2023-02-03T19:33:28.555Z,2.72
2023-02-03T19:36:16.805Z,2.88
2023-02-03T19:39:05.208Z,2.25
2023-02-03T19:41:53.765Z,3.20
2023-02-03T19:44:43.709Z,3.53
2023-02-03T19:47:32.236Z,3.35
2023-02-03T19:50:20.686Z,3.97
2023-02-03T19:53:09.552Z,3.15
2023-02-03T19:55:57.928Z,3.22
2023-02-03T19:58:52.001Z,2.67
2023-02-03T20:01:42.393Z,2.95
2023-02-03T20:04:31.036Z,2.88
2023-02-03T20:07:19.300Z,3.55
2023-02-03T20:10:08.186Z,2.80
2023-02-03T20:12:56.736Z,3.13
2023-02-03T20:15:47.592Z,3.15
2023-02-03T20:18:37.231Z,3.60
2023-02-03T20:21:25.468Z,3.50
2023-02-03T20:24:14.522Z,4.15
2023-02-03T20:27:02.765Z,3.30
2023-02-03T20:29:51.312Z,3.40
2023-02-03T20:32:39.971Z,2.97
2023-02-03T20:35:29.885Z,3.92
2023-02-03T20:38:18.422Z,3.75
2023-02-03T20:41:10.514Z,3.10
2023-02-03T20:43:58.700Z,3.30
2023-02-03T20:46:47.397Z,2.60
2023-02-03T20:49:35.658Z,2.83
2023-02-03T20:52:25.445Z,3.53
2023-02-03T20:55:15.552Z,2.70
2023-02-03T20:58:05.554Z,3.25
2023-02-03T21:00:57.176Z,2.28
2023-02-03T21:04:03.842Z,2.38
2023-02-03T21:06:52.059Z,2.42
2023-02-03T21:09:41.817Z,2.13
2023-02-03T21:12:30.027Z,3.88
2023-02-03T21:15:24.375Z,1.92
2023-02-03T21:18:39.100Z,2.28
2023-02-03T21:21:34.258Z,2.15
2023-02-03T21:24:26.802Z,2.28
2023-02-03T21:27:25.645Z,1.83
2023-02-03T21:30:28.250Z,1.75
2023-02-03T21:33:30.321Z,1.70
2023-02-03T21:36:20.842Z,2.15
2023-02-03T21:39:26.644Z,2.22
2023-02-03T21:42:42.661Z,1.65
2023-02-03T21:45:36.868Z,2.10
2023-02-03T21:48:32.096Z,2.30
2023-02-03T21:51:23.175Z,2.05
2023-02-03T21:57:13.737Z,2.03
2023-02-03T22:00:03.452Z,2.40
2023-02-03T22:02:58.535Z,2.40
2023-02-03T22:05:47.429Z,2.08
2023-02-03T22:08:38.026Z,2.17
2023-02-03T22:11:28.190Z,1.73
2023-02-03T22:14:17.695Z,1.97
2023-02-03T22:17:07.274Z,1.92
2023-02-03T22:19:55.491Z,1.98
2023-02-03T22:22:43.682Z,1.80
2023-02-03T22:25:31.919Z,3.25
2023-02-03T22:28:20.161Z,2.13
2023-02-03T22:31:11.112Z,1.80
2023-02-03T22:34:00.919Z,1.40
2023-02-03T22:36:49.122Z,1.55
2023-02-03T22:39:37.353Z,1.42
2023-02-03T22:42:25.572Z,1.58
2023-02-03T22:45:14.519Z,1.63
2023-02-03T22:48:02.716Z,1.10
2023-02-03T22:50:52.297Z,1.70
2023-02-03T22:53:40.522Z,0.77
2023-02-03T22:56:28.780Z,0.85
2023-02-03T22:59:16.997Z,1.00
2023-02-03T23:02:05.247Z,1.00
2023-02-03T23:04:53.642Z,1.00
2023-02-03T23:07:43.272Z,1.00
2023-02-03T23:10:32.945Z,1.20
2023-02-03T23:13:21.314Z,0.90
2023-02-03T23:16:09.559Z,1.00
2023-02-03T23:18:57.826Z,1.17
2023-02-03T23:21:46.090Z,0.98
2023-02-03T23:24:35.678Z,1.27
2023-02-03T23:27:24.008Z,1.30
2023-02-03T23:30:13.958Z,1.00
2023-02-03T23:33:02.223Z,1.00
2023-02-03T23:35:50.737Z,0.90
2023-02-03T23:38:38.946Z,1.00
2023-02-03T23:41:28.547Z,0.95
2023-02-03T23:44:16.799Z,1.30
2023-02-03T23:47:05.256Z,0.93
2023-02-03T23:49:53.482Z,0.90
2023-02-03T23:52:41.765Z,0.93
2023-02-03T23:55:31.301Z,0.90
2023-02-03T23:58:20.917Z,0.55
